createdAt,value
2022-11-29T00:00:17.807Z,26.50
2022-11-29T00:01:17.777Z,18.90
2022-11-29T00:02:17.869Z,23.50
2022-11-29T00:03:17.885Z,24.20
2022-11-29T00:04:17.738Z,24.20
2022-11-29T00:05:17.770Z,28.90
2022-11-29T00:06:17.709Z,24.30
2022-11-29T00:07:17.785Z,22.40
2022-11-29T00:08:17.685Z,23.20
2022-11-29T00:09:17.673Z,22.70
2022-11-29T00:10:17.692Z,21.10
2022-11-29T00:11:17.647Z,19.80
2022-11-29T00:12:17.633Z,24.00
2022-11-29T00:13:17.636Z,20.90
2022-11-29T00:14:17.603Z,22.40
2022-11-29T00:15:17.598Z,21.30
2022-11-29T00:16:17.920Z,25.90
2022-11-29T00:17:17.736Z,24.40
2022-11-29T00:18:17.703Z,22.90
2022-11-29T00:19:17.941Z,24.20
2022-11-29T00:20:17.535Z,19.50
2022-11-29T00:21:17.733Z,19.50
2022-11-29T00:22:17.500Z,19.20
2022-11-29T00:23:17.492Z,19.80
2022-11-29T00:24:17.701Z,16.20
2022-11-29T00:25:17.471Z,20.10
2022-11-29T00:26:17.450Z,19.30
2022-11-29T00:27:17.439Z,15.80
2022-11-29T00:28:17.429Z,20.30
2022-11-29T00:29:17.638Z,18.80
2022-11-29T00:30:17.410Z,22.60
2022-11-29T00:31:17.423Z,18.40
2022-11-29T00:32:17.370Z,16.40
2022-11-29T00:33:17.360Z,20.10
2022-11-29T00:34:17.607Z,20.30
2022-11-29T00:35:17.337Z,21.10
2022-11-29T00:36:17.318Z,22.80
2022-11-29T00:37:17.313Z,14.00
2022-11-29T00:38:17.298Z,19.30
2022-11-29T00:39:17.486Z,18.60
2022-11-29T00:40:17.267Z,16.90
2022-11-29T00:41:17.257Z,14.90
2022-11-29T00:42:17.478Z,13.90
2022-11-29T00:43:17.230Z,13.90
2022-11-29T00:44:20.352Z,15.90
2022-11-29T00:45:17.217Z,17.10
2022-11-29T00:46:17.240Z,17.90
2022-11-29T00:47:17.388Z,15.10
2022-11-29T00:48:17.166Z,15.40
2022-11-29T00:49:17.166Z,15.70
2022-11-29T00:50:17.144Z,14.80
2022-11-29T00:51:17.137Z,13.30
2022-11-29T00:52:17.135Z,12.80
2022-11-29T00:53:17.104Z,16.30
2022-11-29T00:54:17.304Z,15.10
2022-11-29T00:55:17.082Z,13.30
2022-11-29T00:56:17.064Z,14.80
2022-11-29T00:57:17.264Z,12.80
2022-11-29T00:58:17.270Z,14.80
2022-11-29T00:59:17.054Z,15.20
2022-11-29T01:00:17.015Z,13.30
2022-11-29T01:01:17.059Z,14.10
2022-11-29T01:02:17.095Z,13.90
2022-11-29T01:03:16.984Z,16.30
2022-11-29T01:04:17.162Z,16.00
2022-11-29T01:05:16.963Z,18.20
2022-11-29T01:06:16.934Z,17.20
2022-11-29T01:07:16.929Z,17.20
2022-11-29T01:08:17.130Z,18.20
2022-11-29T01:09:16.928Z,17.00
2022-11-29T01:10:16.889Z,21.60
2022-11-29T01:11:16.871Z,24.10
2022-11-29T01:12:16.861Z,22.50
2022-11-29T01:13:17.050Z,23.80
2022-11-29T01:14:16.833Z,22.60
2022-11-29T01:15:16.832Z,26.50
2022-11-29T01:16:16.868Z,31.00
2022-11-29T01:17:16.799Z,26.40
2022-11-29T01:18:17.053Z,28.20
2022-11-29T01:19:16.768Z,28.00
2022-11-29T01:20:16.761Z,32.40
2022-11-29T01:21:16.738Z,23.50
2022-11-29T01:22:16.737Z,27.60
2022-11-29T01:23:16.907Z,25.50
2022-11-29T01:24:16.709Z,27.10
2022-11-29T01:25:16.698Z,26.50
2022-11-29T01:26:16.905Z,29.10
2022-11-29T01:27:16.657Z,29.00
2022-11-29T01:28:16.649Z,25.50
2022-11-29T01:29:16.881Z,29.40
2022-11-29T01:30:16.627Z,27.00
2022-11-29T01:31:16.683Z,29.30
2022-11-29T01:32:16.606Z,24.40
2022-11-29T01:33:16.798Z,28.30
2022-11-29T01:34:16.818Z,25.10
2022-11-29T01:35:16.557Z,25.30
2022-11-29T01:36:16.549Z,31.30
2022-11-29T01:37:16.538Z,24.00
2022-11-29T01:38:16.749Z,26.80
2022-11-29T01:39:16.516Z,29.40
2022-11-29T01:40:16.495Z,29.30
2022-11-29T01:41:16.515Z,28.00
2022-11-29T01:42:16.495Z,28.90
2022-11-29T01:43:16.664Z,31.70
2022-11-29T01:44:16.455Z,28.90
2022-11-29T01:45:16.634Z,33.40
2022-11-29T01:46:16.443Z,27.30
2022-11-29T01:47:16.423Z,28.00
2022-11-29T01:48:16.414Z,31.40
2022-11-29T01:49:16.382Z,34.50
2022-11-29T01:50:16.574Z,27.30
2022-11-29T01:51:16.563Z,29.80
2022-11-29T01:52:16.343Z,26.30
2022-11-29T01:53:16.323Z,29.40
2022-11-29T01:54:16.326Z,33.60
2022-11-29T01:55:16.334Z,30.70
2022-11-29T01:56:16.358Z,38.10
2022-11-29T01:57:16.283Z,33.00
2022-11-29T01:58:16.262Z,38.50
2022-11-29T01:59:16.252Z,41.50
2022-11-29T02:00:16.460Z,38.30
2022-11-29T02:01:16.459Z,40.10
2022-11-29T02:02:16.249Z,40.80
2022-11-29T02:03:16.199Z,44.60
2022-11-29T02:04:16.183Z,39.10
2022-11-29T02:05:16.450Z,44.90
2022-11-29T02:06:16.171Z,46.90
2022-11-29T02:07:16.215Z,59.60
2022-11-29T02:08:16.141Z,52.90
2022-11-29T02:09:16.119Z,49.00
2022-11-29T02:10:16.340Z,44.80
2022-11-29T02:11:16.099Z,50.90
2022-11-29T02:12:16.314Z,59.20
2022-11-29T02:13:16.079Z,52.80
2022-11-29T02:14:16.058Z,68.10
2022-11-29T02:15:16.057Z,46.00
2022-11-29T02:16:16.268Z,52.10
2022-11-29T02:17:16.237Z,50.00
2022-11-29T02:18:16.196Z,52.00
2022-11-29T02:19:15.997Z,44.50
2022-11-29T02:20:15.990Z,44.60
2022-11-29T02:21:15.966Z,41.90
2022-11-29T02:22:15.969Z,50.20
2022-11-29T02:23:16.148Z,44.90
2022-11-29T02:24:15.950Z,47.20
2022-11-29T02:25:15.916Z,47.40
2022-11-29T02:26:16.128Z,59.10
2022-11-29T02:27:15.899Z,49.10
2022-11-29T02:28:16.096Z,50.70
2022-11-29T02:29:15.863Z,52.00
2022-11-29T02:30:15.852Z,57.90
2022-11-29T02:31:15.879Z,48.60
2022-11-29T02:32:15.866Z,57.30
2022-11-29T02:33:15.813Z,49.40
2022-11-29T02:34:15.795Z,52.00
2022-11-29T02:35:15.787Z,52.60
2022-11-29T02:36:15.783Z,56.60
2022-11-29T02:37:15.978Z,49.90
2022-11-29T02:38:15.755Z,44.70
2022-11-29T02:39:15.964Z,60.00
2022-11-29T02:40:15.727Z,53.00
2022-11-29T02:41:15.703Z,46.60
2022-11-29T02:42:15.935Z,42.50
2022-11-29T02:43:15.689Z,55.40
2022-11-29T02:44:15.672Z,49.90
2022-11-29T02:45:15.662Z,51.50
2022-11-29T02:46:15.696Z,43.80
2022-11-29T02:47:15.822Z,59.20
2022-11-29T02:48:15.620Z,49.40
2022-11-29T02:49:15.813Z,56.40
2022-11-29T02:50:15.593Z,57.00
2022-11-29T02:51:15.590Z,45.00
2022-11-29T02:52:15.772Z,54.40
2022-11-29T02:53:15.613Z,52.90
2022-11-29T02:54:15.551Z,44.90
2022-11-29T02:55:15.530Z,54.00
2022-11-29T02:56:15.701Z,52.80
2022-11-29T02:57:15.499Z,51.90
2022-11-29T02:58:15.495Z,42.50
2022-11-29T02:59:15.480Z,46.20
2022-11-29T03:00:15.681Z,50.50
2022-11-29T03:01:15.486Z,46.70
2022-11-29T03:02:15.464Z,51.60
2022-11-29T03:03:15.473Z,51.90
2022-11-29T03:04:15.417Z,51.50
2022-11-29T03:05:15.398Z,45.30
2022-11-29T03:06:15.463Z,41.70
2022-11-29T03:07:15.409Z,45.90
2022-11-29T03:08:15.570Z,50.00
2022-11-29T03:09:15.558Z,41.60
2022-11-29T03:10:15.345Z,45.50
2022-11-29T03:11:15.316Z,45.20
2022-11-29T03:12:15.336Z,47.10
2022-11-29T03:13:15.299Z,53.70
2022-11-29T03:14:15.306Z,33.10
2022-11-29T03:15:15.284Z,43.90
2022-11-29T03:16:15.290Z,40.10
2022-11-29T03:17:15.266Z,47.90
2022-11-29T03:18:15.237Z,44.60
2022-11-29T03:19:15.436Z,44.10
2022-11-29T03:20:15.205Z,42.90
2022-11-29T03:21:15.199Z,42.40
2022-11-29T03:22:15.175Z,40.30
2022-11-29T03:23:15.175Z,37.60
2022-11-29T03:24:15.355Z,35.40
2022-11-29T03:25:15.155Z,39.80
2022-11-29T03:26:15.128Z,30.90
2022-11-29T03:27:15.125Z,42.40
2022-11-29T03:28:15.326Z,44.40
2022-11-29T03:29:15.104Z,34.80
2022-11-29T03:30:15.094Z,33.30
2022-11-29T03:31:15.137Z,34.30
2022-11-29T03:32:15.062Z,32.40
2022-11-29T03:33:15.244Z,38.40
2022-11-29T03:34:15.242Z,42.90
2022-11-29T03:35:15.022Z,37.30
2022-11-29T03:36:15.003Z,34.60
2022-11-29T03:37:14.991Z,36.90
2022-11-29T03:38:15.204Z,27.80
2022-11-29T03:39:14.982Z,42.40
2022-11-29T03:40:15.151Z,32.50
2022-11-29T03:41:15.162Z,47.70
2022-11-29T03:42:14.925Z,42.60
2022-11-29T03:43:14.912Z,42.30
2022-11-29T03:44:14.899Z,38.10
2022-11-29T03:45:14.890Z,32.60
2022-11-29T03:46:15.148Z,37.40
2022-11-29T03:47:14.880Z,38.20
2022-11-29T03:48:14.858Z,38.00
2022-11-29T03:49:14.837Z,31.90
2022-11-29T03:50:14.834Z,33.20
2022-11-29T03:51:15.031Z,29.60
2022-11-29T03:52:14.798Z,32.90
2022-11-29T03:53:14.789Z,28.10
2022-11-29T03:54:15.010Z,24.60
2022-11-29T03:55:14.770Z,28.10
2022-11-29T03:56:14.747Z,26.10
2022-11-29T03:57:14.939Z,25.70
2022-11-29T03:58:14.731Z,24.00
2022-11-29T03:59:14.927Z,24.90
2022-11-29T04:00:14.710Z,24.70
2022-11-29T04:01:14.727Z,25.20
2022-11-29T04:02:14.789Z,24.80
2022-11-29T04:03:14.667Z,30.00
2022-11-29T04:04:14.867Z,25.70
2022-11-29T04:05:14.628Z,28.00
2022-11-29T04:06:14.627Z,24.70
2022-11-29T04:07:14.616Z,25.40
2022-11-29T04:08:14.820Z,17.40
2022-11-29T04:09:14.585Z,27.30
2022-11-29T04:10:14.766Z,25.60
2022-11-29T04:11:14.554Z,20.70
2022-11-29T04:12:14.537Z,21.00
2022-11-29T04:13:14.526Z,28.50
2022-11-29T04:14:14.716Z,23.80
2022-11-29T04:15:15.665Z,21.80
2022-11-29T04:16:14.530Z,19.80
2022-11-29T04:17:14.486Z,30.70
2022-11-29T04:18:14.453Z,23.90
2022-11-29T04:19:14.450Z,26.40
2022-11-29T04:20:14.647Z,26.60
2022-11-29T04:21:14.434Z,21.20
2022-11-29T04:22:14.416Z,30.40
2022-11-29T04:23:14.394Z,29.10
2022-11-29T04:24:14.373Z,29.40
2022-11-29T04:25:14.583Z,31.80
2022-11-29T04:26:14.573Z,26.00
2022-11-29T04:27:14.567Z,27.50
2022-11-29T04:28:14.322Z,30.20
2022-11-29T04:29:14.334Z,29.90
2022-11-29T04:30:14.312Z,28.70
2022-11-29T04:31:14.566Z,30.80
2022-11-29T04:32:14.271Z,28.60
2022-11-29T04:33:14.267Z,34.40
2022-11-29T04:34:14.461Z,33.00
2022-11-29T04:35:14.252Z,28.70
2022-11-29T04:36:14.247Z,27.80
2022-11-29T04:37:14.220Z,32.50
2022-11-29T04:38:14.209Z,26.00
2022-11-29T04:39:14.203Z,32.10
2022-11-29T04:40:14.188Z,30.20
2022-11-29T04:41:14.379Z,35.00
2022-11-29T04:42:14.149Z,31.90
2022-11-29T04:43:14.362Z,30.30
2022-11-29T04:44:14.128Z,39.20
2022-11-29T04:45:14.120Z,45.20
2022-11-29T04:46:14.363Z,41.40
2022-11-29T04:47:14.089Z,36.80
2022-11-29T04:48:14.068Z,43.00
2022-11-29T04:49:14.067Z,47.00
2022-11-29T04:50:14.258Z,43.80
2022-11-29T04:51:14.047Z,42.00
2022-11-29T04:52:14.016Z,39.70
2022-11-29T04:53:14.027Z,39.10
2022-11-29T04:54:14.189Z,39.10
2022-11-29T04:55:19.433Z,47.20
2022-11-29T04:56:14.969Z,46.00
2022-11-29T04:57:13.965Z,32.20
2022-11-29T04:58:13.953Z,40.80
2022-11-29T04:59:14.146Z,40.60
2022-11-29T05:00:13.951Z,42.00
2022-11-29T05:01:13.938Z,50.60
2022-11-29T05:02:13.912Z,46.70
2022-11-29T05:03:13.887Z,41.10
2022-11-29T05:04:13.865Z,45.80
2022-11-29T05:05:14.083Z,50.30
2022-11-29T05:06:13.834Z,52.50
2022-11-29T05:07:13.841Z,39.50
2022-11-29T05:08:13.807Z,43.90
2022-11-29T05:09:13.808Z,42.10
2022-11-29T05:10:13.783Z,34.30
2022-11-29T05:11:14.003Z,44.10
2022-11-29T05:12:13.777Z,44.30
2022-11-29T05:13:13.762Z,42.10
2022-11-29T05:14:13.735Z,42.20
2022-11-29T05:15:13.734Z,46.60
2022-11-29T05:16:13.936Z,45.90
2022-11-29T05:17:13.712Z,44.30
2022-11-29T05:18:13.891Z,43.30
2022-11-29T05:19:13.675Z,46.60
2022-11-29T05:20:13.885Z,39.30
2022-11-29T05:21:13.652Z,48.00
2022-11-29T05:22:13.633Z,47.40
2022-11-29T05:23:13.624Z,39.50
2022-11-29T05:24:13.611Z,48.70
2022-11-29T05:25:13.621Z,48.20
2022-11-29T05:26:13.579Z,43.50
2022-11-29T05:27:13.570Z,47.00
2022-11-29T05:28:13.562Z,46.20
2022-11-29T05:29:13.736Z,51.20
2022-11-29T05:30:13.543Z,46.20
2022-11-29T05:31:13.553Z,47.60
2022-11-29T05:32:13.509Z,43.80
2022-11-29T05:33:13.708Z,52.10
2022-11-29T05:34:13.692Z,40.90
2022-11-29T05:35:13.479Z,43.00
2022-11-29T05:36:13.461Z,40.20
2022-11-29T05:37:13.444Z,49.40
2022-11-29T05:38:13.428Z,46.60
2022-11-29T05:39:13.428Z,47.70
2022-11-29T05:40:13.622Z,44.70
2022-11-29T05:41:13.392Z,47.40
2022-11-29T05:42:13.380Z,54.60
2022-11-29T05:43:13.377Z,48.20
2022-11-29T05:44:13.370Z,41.00
2022-11-29T05:45:13.336Z,42.60
2022-11-29T05:46:13.349Z,46.20
2022-11-29T05:47:13.327Z,52.20
2022-11-29T05:48:13.316Z,40.30
2022-11-29T05:49:13.511Z,48.90
2022-11-29T05:50:13.506Z,46.40
2022-11-29T05:51:13.256Z,51.40
2022-11-29T05:52:13.445Z,36.30
2022-11-29T05:53:13.235Z,47.20
2022-11-29T05:54:13.218Z,48.30
2022-11-29T05:55:13.213Z,45.80
2022-11-29T05:56:13.250Z,37.90
2022-11-29T05:57:13.402Z,46.10
2022-11-29T05:58:13.173Z,48.30
2022-11-29T05:59:13.156Z,50.40
2022-11-29T06:00:13.143Z,49.70
2022-11-29T06:01:13.324Z,50.50
2022-11-29T06:02:13.160Z,41.20
2022-11-29T06:03:13.365Z,48.50
2022-11-29T06:04:14.984Z,52.20
2022-11-29T06:05:13.084Z,44.20
2022-11-29T06:06:13.070Z,44.00
2022-11-29T06:07:13.062Z,48.40
2022-11-29T06:08:13.072Z,45.40
2022-11-29T06:09:13.030Z,46.10
2022-11-29T06:10:13.041Z,44.70
2022-11-29T06:11:13.002Z,45.80
2022-11-29T06:12:16.890Z,44.80
2022-11-29T06:13:13.972Z,51.80
2022-11-29T06:14:12.963Z,42.00
2022-11-29T06:15:13.191Z,40.20
2022-11-29T06:16:12.955Z,46.70
2022-11-29T06:17:12.921Z,41.90
2022-11-29T06:18:12.912Z,45.20
2022-11-29T06:19:12.899Z,45.20
2022-11-29T06:20:13.121Z,47.80
2022-11-29T06:21:12.870Z,54.80
2022-11-29T06:22:12.849Z,40.70
2022-11-29T06:23:12.852Z,42.10
2022-11-29T06:24:12.831Z,50.50
2022-11-29T06:25:12.828Z,50.80
2022-11-29T06:26:13.039Z,43.70
2022-11-29T06:27:12.829Z,37.60
2022-11-29T06:28:12.787Z,49.30
2022-11-29T06:29:12.780Z,51.90
2022-11-29T06:30:12.749Z,48.20
2022-11-29T06:31:12.825Z,40.10
2022-11-29T06:32:12.737Z,38.00
2022-11-29T06:33:12.737Z,48.50
2022-11-29T06:34:12.719Z,48.30
2022-11-29T06:35:12.701Z,47.30
2022-11-29T06:36:12.763Z,39.80
2022-11-29T06:37:12.677Z,37.50
2022-11-29T06:38:12.666Z,34.70
2022-11-29T06:39:12.644Z,45.90
2022-11-29T06:40:12.649Z,37.40
2022-11-29T06:41:12.651Z,39.80
2022-11-29T06:42:12.815Z,49.10
2022-11-29T06:43:12.601Z,37.50
2022-11-29T06:44:12.788Z,37.50
2022-11-29T06:45:12.566Z,39.80
2022-11-29T06:46:12.761Z,37.10
2022-11-29T06:47:12.544Z,42.20
2022-11-29T06:48:12.524Z,41.20
2022-11-29T06:49:12.794Z,37.90
2022-11-29T06:50:12.497Z,42.70
2022-11-29T06:51:12.506Z,42.20
2022-11-29T06:52:12.477Z,45.40
2022-11-29T06:53:12.894Z,40.80
2022-11-29T06:54:12.873Z,44.90
2022-11-29T06:55:12.462Z,35.00
2022-11-29T06:56:12.531Z,44.90
2022-11-29T06:57:12.411Z,38.70
2022-11-29T06:58:12.392Z,47.70
2022-11-29T06:59:12.381Z,49.40
2022-11-29T07:00:12.592Z,42.00
2022-11-29T07:01:12.716Z,36.30
2022-11-29T07:02:12.390Z,42.20
2022-11-29T07:03:12.330Z,46.70
2022-11-29T07:04:12.311Z,47.90
2022-11-29T07:05:12.302Z,43.80
2022-11-29T07:06:12.531Z,45.70
2022-11-29T07:07:12.519Z,43.60
2022-11-29T07:08:12.261Z,54.30
2022-11-29T07:09:12.251Z,50.30
2022-11-29T07:10:14.988Z,45.70
2022-11-29T07:11:12.240Z,37.50
2022-11-29T07:12:12.240Z,43.90
2022-11-29T07:13:12.199Z,43.30
2022-11-29T07:14:12.197Z,45.70
2022-11-29T07:15:12.210Z,42.50
2022-11-29T07:16:12.302Z,42.60
2022-11-29T07:17:12.208Z,43.10
2022-11-29T07:18:12.145Z,42.70
2022-11-29T07:19:12.131Z,41.50
2022-11-29T07:20:12.118Z,45.30
2022-11-29T07:21:12.199Z,40.40
2022-11-29T07:22:12.088Z,43.30
2022-11-29T07:23:12.096Z,36.30
2022-11-29T07:24:12.068Z,41.10
2022-11-29T07:25:12.246Z,40.10
2022-11-29T07:26:12.036Z,43.60
2022-11-29T07:27:12.055Z,47.30
2022-11-29T07:28:12.010Z,39.90
2022-11-29T07:29:11.993Z,35.70
2022-11-29T07:30:12.005Z,42.70
2022-11-29T07:31:12.187Z,40.90
2022-11-29T07:32:11.966Z,44.80
2022-11-29T07:33:12.155Z,47.60
2022-11-29T07:34:11.937Z,48.20
2022-11-29T07:35:11.914Z,43.20
2022-11-29T07:36:11.906Z,39.60
2022-11-29T07:37:11.894Z,35.20
2022-11-29T07:38:11.915Z,44.70
2022-11-29T07:39:11.864Z,41.00
2022-11-29T07:40:11.855Z,37.80
2022-11-29T07:41:11.834Z,37.50
2022-11-29T07:42:11.865Z,53.60
2022-11-29T07:43:11.996Z,41.90
2022-11-29T07:44:11.802Z,46.40
2022-11-29T07:45:11.783Z,38.40
2022-11-29T07:46:12.060Z,38.40
2022-11-29T07:47:11.992Z,40.70
2022-11-29T07:48:11.762Z,42.90
2022-11-29T07:49:11.734Z,37.50
2022-11-29T07:50:11.731Z,44.20
2022-11-29T07:51:11.984Z,46.60
2022-11-29T07:52:11.702Z,42.10
2022-11-29T07:53:11.892Z,35.60
2022-11-29T07:54:11.683Z,42.60
2022-11-29T07:55:17.089Z,34.30
2022-11-29T07:56:12.650Z,37.00
2022-11-29T07:57:11.631Z,34.70
2022-11-29T07:58:11.833Z,35.50
2022-11-29T07:59:11.829Z,35.50
2022-11-29T08:00:11.609Z,41.00
2022-11-29T08:01:11.721Z,36.40
2022-11-29T08:02:12.053Z,38.20
2022-11-29T08:03:11.572Z,38.30
2022-11-29T08:04:11.738Z,46.80
2022-11-29T08:05:11.540Z,43.60
2022-11-29T08:06:11.776Z,44.00
2022-11-29T08:07:11.501Z,41.70
2022-11-29T08:08:11.519Z,41.30
2022-11-29T08:09:11.479Z,38.70
2022-11-29T08:10:11.474Z,42.20
2022-11-29T08:11:11.744Z,53.00
2022-11-29T08:12:11.447Z,38.10
2022-11-29T08:13:11.434Z,42.80
2022-11-29T08:14:11.427Z,44.90
2022-11-29T08:15:11.407Z,50.40
2022-11-29T08:16:11.795Z,48.10
2022-11-29T08:17:11.376Z,41.90
2022-11-29T08:18:11.371Z,48.70
2022-11-29T08:19:11.569Z,36.70
2022-11-29T08:20:11.337Z,40.40
2022-11-29T08:21:11.327Z,44.10
2022-11-29T08:22:11.317Z,47.50
2022-11-29T08:23:11.307Z,45.20
2022-11-29T08:24:11.307Z,42.40
2022-11-29T08:25:11.302Z,44.40
2022-11-29T08:26:11.263Z,52.20
2022-11-29T08:27:11.254Z,43.60
2022-11-29T08:28:11.246Z,51.60
2022-11-29T08:29:11.234Z,37.40
2022-11-29T08:30:11.235Z,47.10
2022-11-29T08:31:11.236Z,46.60
2022-11-29T08:32:11.184Z,42.10
2022-11-29T08:33:11.173Z,42.50
2022-11-29T08:34:11.163Z,50.20
2022-11-29T08:35:11.394Z,57.00
2022-11-29T08:36:11.403Z,49.40
2022-11-29T08:37:11.122Z,45.60
2022-11-29T08:38:11.132Z,48.30
2022-11-29T08:39:11.101Z,52.80
2022-11-29T08:40:11.093Z,53.30
2022-11-29T08:41:11.080Z,55.80
2022-11-29T08:42:11.053Z,47.40
2022-11-29T08:43:11.070Z,41.20
2022-11-29T08:44:11.032Z,48.20
2022-11-29T08:45:11.233Z,46.40
2022-11-29T08:46:16.696Z,46.20
2022-11-29T08:47:12.234Z,43.80
2022-11-29T08:48:10.981Z,51.80
2022-11-29T08:49:10.970Z,49.70
2022-11-29T08:50:10.950Z,47.80
2022-11-29T08:51:11.175Z,54.40
2022-11-29T08:52:10.922Z,52.90
2022-11-29T08:53:10.920Z,47.50
2022-11-29T08:54:10.899Z,54.10
2022-11-29T08:55:10.890Z,49.90
2022-11-29T08:56:49.442Z,50.60
2022-11-29T08:58:11.848Z,45.90
2022-11-29T08:59:10.844Z,47.50
2022-11-29T09:00:10.847Z,52.10
2022-11-29T09:01:10.895Z,59.90
2022-11-29T09:02:10.829Z,50.90
2022-11-29T09:03:10.787Z,54.80
2022-11-29T09:04:10.776Z,40.90
2022-11-29T09:05:10.765Z,54.00
2022-11-29T09:06:12.612Z,50.40
2022-11-29T09:07:10.770Z,43.60
2022-11-29T09:08:10.717Z,42.00
2022-11-29T09:09:10.721Z,47.10
2022-11-29T09:10:10.712Z,52.20
2022-11-29T09:11:10.887Z,45.00
2022-11-29T09:12:10.677Z,46.10
2022-11-29T09:13:10.660Z,45.10
2022-11-29T09:14:10.657Z,46.50
2022-11-29T09:15:10.637Z,55.20
2022-11-29T09:16:10.840Z,53.20
2022-11-29T09:17:10.627Z,49.50
2022-11-29T09:18:10.598Z,46.70
2022-11-29T09:19:10.599Z,43.20
2022-11-29T09:20:10.564Z,46.90
2022-11-29T09:21:10.556Z,46.00
2022-11-29T09:22:10.588Z,47.60
2022-11-29T09:23:10.535Z,39.00
2022-11-29T09:24:10.546Z,49.80
2022-11-29T09:25:10.504Z,36.60
2022-11-29T09:26:10.492Z,40.30
2022-11-29T09:27:10.485Z,49.20
2022-11-29T09:28:10.464Z,32.30
2022-11-29T09:29:11.319Z,42.90
2022-11-29T09:30:10.440Z,42.10
2022-11-29T09:31:10.433Z,43.40
2022-11-29T09:32:10.403Z,39.50
2022-11-29T09:33:10.421Z,41.40
2022-11-29T09:34:10.401Z,41.20
2022-11-29T09:35:10.371Z,54.30
2022-11-29T09:36:10.360Z,41.90
2022-11-29T09:37:10.344Z,45.70
2022-11-29T09:38:10.333Z,40.50
2022-11-29T09:39:10.343Z,33.50
2022-11-29T09:40:10.304Z,51.30
2022-11-29T09:41:10.311Z,42.70
2022-11-29T09:42:10.469Z,46.40
2022-11-29T09:43:10.270Z,50.00
2022-11-29T09:44:10.289Z,42.70
2022-11-29T09:45:10.249Z,48.10
2022-11-29T09:46:10.281Z,45.10
2022-11-29T09:47:10.421Z,44.50
2022-11-29T09:48:10.206Z,41.80
2022-11-29T09:49:10.189Z,33.40
2022-11-29T09:50:10.197Z,47.20
2022-11-29T09:51:10.169Z,41.20
2022-11-29T09:52:10.358Z,48.90
2022-11-29T09:53:10.138Z,46.30
2022-11-29T09:54:10.127Z,47.10
2022-11-29T09:55:10.117Z,34.80
2022-11-29T09:56:10.331Z,47.70
2022-11-29T09:57:11.034Z,36.70
2022-11-29T09:58:10.136Z,49.00
2022-11-29T09:59:10.103Z,49.90
2022-11-29T10:00:10.046Z,50.70
2022-11-29T10:01:10.104Z,41.20
2022-11-29T10:02:10.083Z,46.80
2022-11-29T10:03:10.030Z,43.20
2022-11-29T10:04:10.027Z,42.30
2022-11-29T10:05:09.985Z,49.00
2022-11-29T10:06:09.967Z,38.50
2022-11-29T10:07:09.968Z,39.30
2022-11-29T10:08:09.985Z,40.20
2022-11-29T10:09:09.975Z,44.90
2022-11-29T10:10:09.955Z,43.70
2022-11-29T10:11:09.913Z,44.30
2022-11-29T10:12:10.835Z,39.10
2022-11-29T10:13:09.896Z,42.30
2022-11-29T10:14:09.918Z,41.20
2022-11-29T10:15:09.874Z,44.60
2022-11-29T10:16:09.859Z,37.10
2022-11-29T10:17:09.831Z,37.40
2022-11-29T10:18:09.818Z,46.40
2022-11-29T10:19:09.832Z,40.00
2022-11-29T10:20:09.793Z,36.60
2022-11-29T10:21:09.798Z,43.50
2022-11-29T10:22:09.792Z,45.20
2022-11-29T10:23:09.750Z,40.60
2022-11-29T10:24:09.773Z,47.00
2022-11-29T10:25:09.730Z,46.10
2022-11-29T10:26:09.721Z,41.10
2022-11-29T10:27:09.694Z,47.70
2022-11-29T10:28:09.705Z,36.50
2022-11-29T10:29:09.739Z,45.90
2022-11-29T10:30:09.661Z,37.80
2022-11-29T10:31:09.725Z,41.90
2022-11-29T10:32:10.443Z,47.40
2022-11-29T10:33:09.619Z,47.30
2022-11-29T10:34:09.622Z,45.00
2022-11-29T10:35:09.600Z,44.90
2022-11-29T10:36:09.589Z,42.70
2022-11-29T10:37:09.799Z,41.50
2022-11-29T10:39:14.442Z,49.80
2022-11-29T10:40:09.531Z,48.70
2022-11-29T10:41:09.720Z,43.90
2022-11-29T10:42:09.510Z,59.80
2022-11-29T10:43:09.508Z,42.40
2022-11-29T10:44:09.487Z,55.90
2022-11-29T10:45:09.647Z,46.00
2022-11-29T10:46:09.467Z,42.20
2022-11-29T10:47:11.073Z,43.30
2022-11-29T10:48:09.427Z,50.00
2022-11-29T10:49:09.415Z,42.40
2022-11-29T10:50:09.432Z,41.40
2022-11-29T10:51:09.414Z,42.30
2022-11-29T10:52:09.402Z,53.10
2022-11-29T10:53:09.364Z,38.30
2022-11-29T10:54:09.394Z,36.80
2022-11-29T10:55:09.566Z,40.10
2022-11-29T10:56:09.334Z,42.30
2022-11-29T10:57:09.314Z,42.30
2022-11-29T10:58:09.298Z,41.10
2022-11-29T10:59:09.274Z,48.20
2022-11-29T11:00:09.467Z,38.60
2022-11-29T11:01:09.363Z,47.10
2022-11-29T11:02:09.257Z,45.20
2022-11-29T11:03:09.223Z,46.70
2022-11-29T11:04:09.214Z,42.30
2022-11-29T11:05:09.352Z,43.90
2022-11-29T11:06:09.593Z,43.70
2022-11-29T11:07:09.244Z,43.70
2022-11-29T11:08:09.268Z,40.80
2022-11-29T11:09:09.207Z,45.90
2022-11-29T11:10:09.155Z,36.70
2022-11-29T11:11:09.160Z,37.10
2022-11-29T11:12:09.121Z,54.50
2022-11-29T11:13:09.102Z,52.90
2022-11-29T11:14:09.152Z,66.20
2022-11-29T11:15:09.081Z,61.20
2022-11-29T11:16:09.279Z,79.30
2022-11-29T11:17:09.132Z,61.30
2022-11-29T11:18:09.193Z,62.20
2022-11-29T11:19:09.041Z,56.50
2022-11-29T11:20:09.030Z,64.80
2022-11-29T11:21:09.029Z,57.50
2022-11-29T11:22:08.990Z,58.70
2022-11-29T11:23:09.219Z,61.60
2022-11-29T11:24:08.977Z,63.10
2022-11-29T11:25:08.979Z,53.70
2022-11-29T11:26:08.968Z,55.40
2022-11-29T11:27:08.932Z,54.80
2022-11-29T11:28:09.151Z,62.80
2022-11-29T11:29:08.898Z,77.80
2022-11-29T11:30:08.889Z,59.10
2022-11-29T11:31:08.966Z,65.20
2022-11-29T11:32:08.877Z,60.90
2022-11-29T11:33:08.888Z,65.00
2022-11-29T11:34:09.037Z,60.70
2022-11-29T11:35:08.820Z,55.20
2022-11-29T11:36:08.822Z,62.70
2022-11-29T11:37:08.807Z,65.40
2022-11-29T11:38:08.786Z,70.80
2022-11-29T11:39:08.798Z,77.20
2022-11-29T11:40:08.806Z,67.60
2022-11-29T11:41:08.749Z,58.30
2022-11-29T11:42:08.745Z,70.30
2022-11-29T11:43:08.744Z,68.50
2022-11-29T11:44:15.260Z,78.50
2022-11-29T11:45:09.716Z,72.60
2022-11-29T11:46:10.012Z,75.90
2022-11-29T11:47:08.665Z,77.40
2022-11-29T11:48:08.666Z,76.20
2022-11-29T11:49:08.848Z,87.90
2022-11-29T11:50:08.642Z,78.50
2022-11-29T11:51:08.605Z,82.70
2022-11-29T11:52:08.607Z,80.20
2022-11-29T11:53:08.589Z,80.90
2022-11-29T11:54:08.594Z,83.50
2022-11-29T11:55:08.593Z,87.10
2022-11-29T11:56:08.548Z,82.50
2022-11-29T11:57:08.544Z,82.40
2022-11-29T11:58:10.622Z,96.40
2022-11-29T11:59:08.531Z,84.50
2022-11-29T12:00:08.544Z,84.70
2022-11-29T12:01:08.532Z,86.00
2022-11-29T12:02:08.521Z,80.40
2022-11-29T12:03:08.600Z,92.00
2022-11-29T12:04:08.460Z,83.60
2022-11-29T12:05:08.655Z,88.10
2022-11-29T12:06:08.421Z,77.40
2022-11-29T12:07:08.412Z,92.70
2022-11-29T12:08:08.964Z,81.70
2022-11-29T12:09:08.371Z,86.10
2022-11-29T12:10:08.592Z,86.00
2022-11-29T12:11:08.362Z,91.20
2022-11-29T12:12:08.340Z,80.70
2022-11-29T12:13:08.342Z,91.90
2022-11-29T12:14:08.320Z,99.30
2022-11-29T12:15:08.338Z,102.50
2022-11-29T12:16:08.444Z,88.10
2022-11-29T12:17:08.308Z,82.60
2022-11-29T12:18:08.498Z,80.70
2022-11-29T12:19:08.260Z,104.40
2022-11-29T12:20:08.240Z,95.60
2022-11-29T12:21:08.230Z,93.80
2022-11-29T12:22:08.227Z,93.00
2022-11-29T12:23:08.419Z,89.70
2022-11-29T12:24:08.189Z,83.70
2022-11-29T12:25:08.183Z,79.50
2022-11-29T12:26:08.264Z,100.50
2022-11-29T12:27:08.206Z,88.10
2022-11-29T12:28:08.139Z,84.40
2022-11-29T12:29:08.125Z,95.80
2022-11-29T12:30:08.111Z,87.40
2022-11-29T12:31:08.139Z,86.40
2022-11-29T12:32:08.306Z,97.30
2022-11-29T12:33:08.077Z,99.00
2022-11-29T12:34:08.065Z,105.20
2022-11-29T12:35:08.049Z,93.40
2022-11-29T12:36:08.034Z,89.30
2022-11-29T12:37:08.256Z,91.00
2022-11-29T12:38:08.045Z,88.90
2022-11-29T12:39:07.996Z,101.70
2022-11-29T12:40:07.989Z,105.70
2022-11-29T12:41:07.980Z,98.80
2022-11-29T12:42:07.972Z,99.90
2022-11-29T12:43:07.973Z,87.10
2022-11-29T12:44:07.955Z,89.40
2022-11-29T12:45:07.923Z,93.10
2022-11-29T12:46:07.960Z,99.80
2022-11-29T12:47:34.473Z,96.50
2022-11-29T12:48:08.945Z,95.80
2022-11-29T12:49:07.870Z,92.70
2022-11-29T12:50:07.850Z,103.40
2022-11-29T12:51:07.843Z,86.50
2022-11-29T12:52:08.042Z,107.10
2022-11-29T12:53:07.812Z,92.50
2022-11-29T12:54:07.812Z,98.60